createdAt,value
2016-09-06T00:00:33.026Z,24.73
2016-09-06T00:01:33.031Z,24.73
2016-09-06T00:02:33.702Z,24.77
2016-09-06T00:03:32.731Z,24.8
2016-09-06T00:04:33.052Z,24.69
2016-09-06T00:05:33.372Z,24.71
2016-09-06T00:06:33.067Z,24.76
2016-09-06T00:07:33.072Z,24.67
2016-09-06T00:08:33.080Z,24.71
2016-09-06T00:09:32.774Z,24.76
2016-09-06T00:10:33.097Z,24.77
2016-09-06T00:11:32.789Z,24.67
2016-09-06T00:12:33.112Z,24.68
2016-09-06T00:13:33.517Z,24.73
2016-09-06T00:14:33.441Z,24.73
2016-09-06T00:15:33.131Z,24.67
2016-09-06T00:16:33.451Z,24.69
2016-09-06T00:17:33.195Z,24.65
2016-09-06T00:18:33.155Z,24.69
2016-09-06T00:19:32.846Z,24.69
2016-09-06T00:20:32.856Z,24.68
2016-09-06T00:21:33.179Z,24.71
2016-09-06T00:22:33.500Z,24.65
2016-09-06T00:23:33.188Z,24.73
2016-09-06T00:24:34.013Z,24.65
2016-09-06T00:25:33.515Z,24.69
2016-09-06T00:26:33.214Z,24.76
2016-09-06T00:27:33.219Z,24.73
2016-09-06T00:28:33.228Z,24.76
2016-09-06T00:29:33.235Z,24.68
2016-09-06T00:30:32.929Z,24.65
2016-09-06T00:31:33.251Z,24.68
2016-09-06T00:32:33.569Z,24.67
2016-09-06T00:33:33.266Z,24.68
2016-09-06T00:34:33.271Z,24.62
2016-09-06T00:35:34.384Z,24.61
2016-09-06T00:36:33.601Z,24.71
2016-09-06T00:37:34.019Z,24.65
2016-09-06T00:38:33.303Z,24.64
2016-09-06T00:39:33.321Z,24.64
2016-09-06T00:40:33.627Z,24.65
2016-09-06T00:41:33.373Z,24.69
2016-09-06T00:42:33.326Z,24.68
2016-09-06T00:43:33.339Z,24.65
2016-09-06T00:44:33.393Z,24.69
2016-09-06T00:45:33.664Z,24.73
2016-09-06T00:46:34.412Z,24.67
2016-09-06T00:47:33.061Z,24.64
2016-09-06T00:48:34.073Z,24.67
2016-09-06T00:49:33.706Z,24.64
2016-09-06T00:50:33.707Z,24.62
2016-09-06T00:51:33.713Z,24.69
2016-09-06T00:52:33.714Z,24.64
2016-09-06T00:53:33.411Z,24.65
2016-09-06T00:54:33.416Z,24.71
2016-09-06T00:55:33.744Z,24.68
2016-09-06T00:56:33.434Z,24.62
2016-09-06T00:57:34.869Z,24.67
2016-09-06T00:58:33.450Z,24.61
2016-09-06T00:59:33.994Z,24.67
2016-09-06T01:00:33.773Z,24.65
2016-09-06T01:01:33.785Z,24.6
2016-09-06T01:02:33.473Z,24.64
2016-09-06T01:03:33.170Z,24.65
2016-09-06T01:04:33.808Z,24.68
2016-09-06T01:05:33.810Z,24.65
2016-09-06T01:06:33.504Z,24.62
2016-09-06T01:07:33.830Z,24.58
2016-09-06T01:08:34.925Z,24.62
2016-09-06T01:09:33.525Z,24.61
2016-09-06T01:10:34.331Z,24.57
2016-09-06T01:11:33.853Z,24.55
2016-09-06T01:12:33.597Z,24.62
2016-09-06T01:13:33.869Z,24.61
2016-09-06T01:14:33.560Z,24.62
2016-09-06T01:15:33.259Z,24.62
2016-09-06T01:16:33.575Z,24.58
2016-09-06T01:17:33.590Z,24.6
2016-09-06T01:18:33.276Z,24.67
2016-09-06T01:19:34.427Z,24.65
2016-09-06T01:20:33.971Z,24.62
2016-09-06T01:21:34.200Z,24.68
2016-09-06T01:22:34.286Z,24.65
2016-09-06T01:23:33.780Z,24.65
2016-09-06T01:24:33.320Z,24.58
2016-09-06T01:25:33.330Z,24.62
2016-09-06T01:26:33.968Z,24.62
2016-09-06T01:27:33.654Z,24.58
2016-09-06T01:28:33.349Z,24.53
2016-09-06T01:29:33.670Z,24.53
2016-09-06T01:30:34.790Z,24.55
2016-09-06T01:31:33.685Z,24.64
2016-09-06T01:32:34.505Z,24.52
2016-09-06T01:33:33.696Z,24.6
2016-09-06T01:34:33.755Z,24.55
2016-09-06T01:35:33.400Z,24.67
2016-09-06T01:36:33.408Z,24.58
2016-09-06T01:37:33.726Z,24.55
2016-09-06T01:38:34.099Z,24.58
2016-09-06T01:39:34.050Z,24.62
2016-09-06T01:40:33.437Z,24.53
2016-09-06T01:41:34.641Z,24.6
2016-09-06T01:42:33.761Z,24.53
2016-09-06T01:43:34.455Z,24.52
2016-09-06T01:44:33.472Z,24.55
2016-09-06T01:45:34.132Z,24.61
2016-09-06T01:46:34.107Z,24.57
2016-09-06T01:47:33.797Z,24.53
2016-09-06T01:48:34.125Z,24.58
2016-09-06T01:49:34.128Z,24.62
2016-09-06T01:50:33.819Z,24.57
2016-09-06T01:51:33.514Z,24.53
2016-09-06T01:52:34.809Z,24.52
2016-09-06T01:53:34.154Z,24.53
2016-09-06T01:54:35.062Z,24.53
2016-09-06T01:55:34.167Z,24.57
2016-09-06T01:56:34.416Z,24.58
2016-09-06T01:57:34.181Z,24.55
2016-09-06T01:58:33.884Z,24.5
2016-09-06T01:59:33.583Z,24.55
2016-09-06T02:00:34.204Z,24.55
2016-09-06T02:01:33.587Z,24.55
2016-09-06T02:02:33.594Z,24.58
2016-09-06T02:03:33.913Z,24.52
2016-09-06T02:04:34.234Z,24.5
2016-09-06T02:05:33.627Z,24.55
2016-09-06T02:06:33.984Z,24.58
2016-09-06T02:07:34.591Z,24.61
2016-09-06T02:08:33.949Z,24.61
2016-09-06T02:09:34.270Z,24.55
2016-09-06T02:10:34.276Z,24.52
2016-09-06T02:11:33.657Z,24.52
2016-09-06T02:12:33.979Z,24.49
2016-09-06T02:13:34.298Z,24.57
2016-09-06T02:14:34.303Z,24.55
2016-09-06T02:15:34.012Z,24.61
2016-09-06T02:16:35.119Z,24.6
2016-09-06T02:17:33.699Z,24.52
2016-09-06T02:18:34.880Z,24.53
2016-09-06T02:19:34.027Z,24.55
2016-09-06T02:20:34.034Z,24.58
2016-09-06T02:21:34.141Z,24.55
2016-09-06T02:22:33.735Z,24.58
2016-09-06T02:23:34.057Z,24.55
2016-09-06T02:24:34.068Z,24.53
2016-09-06T02:25:34.383Z,24.58
2016-09-06T02:26:34.389Z,24.55
2016-09-06T02:27:33.773Z,24.52
2016-09-06T02:28:34.407Z,24.5
2016-09-06T02:29:35.154Z,24.49
2016-09-06T02:30:33.792Z,24.57
2016-09-06T02:31:34.425Z,24.52
2016-09-06T02:32:34.431Z,24.5
2016-09-06T02:33:34.442Z,24.55
2016-09-06T02:34:33.820Z,24.52
2016-09-06T02:35:33.828Z,24.5
2016-09-06T02:36:34.194Z,24.53
2016-09-06T02:37:34.466Z,24.57
2016-09-06T02:38:35.446Z,24.58
2016-09-06T02:39:34.481Z,24.43
2016-09-06T02:40:33.864Z,24.47
2016-09-06T02:41:34.184Z,24.52
2016-09-06T02:42:34.498Z,24.45
2016-09-06T02:43:33.935Z,24.47
2016-09-06T02:44:33.890Z,24.53
2016-09-06T02:45:34.260Z,24.55
2016-09-06T02:46:33.905Z,24.53
2016-09-06T02:47:34.785Z,24.5
2016-09-06T02:48:34.541Z,24.52
2016-09-06T02:49:34.547Z,24.53
2016-09-06T02:50:33.981Z,24.5
2016-09-06T02:51:34.254Z,24.45
2016-09-06T02:52:34.308Z,24.45
2016-09-06T02:53:34.581Z,24.53
2016-09-06T02:54:34.590Z,24.49
2016-09-06T02:55:34.592Z,24.52
2016-09-06T02:56:34.601Z,24.49
2016-09-06T02:57:34.608Z,24.45
2016-09-06T02:58:34.822Z,24.43
2016-09-06T02:59:33.999Z,24.45
2016-09-06T03:00:34.628Z,24.46
2016-09-06T03:01:34.638Z,24.49
2016-09-06T03:02:34.030Z,24.45
2016-09-06T03:03:34.344Z,24.47
2016-09-06T03:04:34.658Z,24.46
2016-09-06T03:05:34.676Z,24.52
2016-09-06T03:06:34.672Z,24.43
2016-09-06T03:07:34.733Z,24.46
2016-09-06T03:08:34.380Z,24.43
2016-09-06T03:09:34.993Z,24.47
2016-09-06T03:10:34.074Z,24.47
2016-09-06T03:11:34.393Z,24.42
2016-09-06T03:12:34.398Z,24.39
2016-09-06T03:13:34.409Z,24.45
2016-09-06T03:14:34.727Z,24.45
2016-09-06T03:15:34.109Z,24.39
2016-09-06T03:16:34.427Z,24.37
2016-09-06T03:17:34.435Z,24.43
2016-09-06T03:18:34.439Z,24.4
2016-09-06T03:19:34.761Z,24.32
2016-09-06T03:20:35.366Z,24.4
2016-09-06T03:21:34.467Z,24.43
2016-09-06T03:22:34.670Z,24.42
2016-09-06T03:23:34.787Z,24.37
2016-09-06T03:24:34.798Z,24.39
2016-09-06T03:25:34.806Z,24.45
2016-09-06T03:26:34.499Z,24.39
2016-09-06T03:27:34.819Z,24.39
2016-09-06T03:28:34.519Z,24.43
2016-09-06T03:29:34.211Z,24.47
2016-09-06T03:30:34.528Z,24.43
2016-09-06T03:31:35.334Z,24.45
2016-09-06T03:32:34.232Z,24.35
2016-09-06T03:33:34.649Z,24.37
2016-09-06T03:34:34.866Z,24.37
2016-09-06T03:35:34.876Z,24.32
2016-09-06T03:36:34.882Z,24.35
2016-09-06T03:37:34.579Z,24.37
2016-09-06T03:38:34.583Z,24.37
2016-09-06T03:39:34.592Z,24.42
2016-09-06T03:40:34.283Z,24.4
2016-09-06T03:41:34.604Z,24.39
2016-09-06T03:42:36.024Z,24.39
2016-09-06T03:43:34.933Z,24.39
2016-09-06T03:44:35.323Z,24.35
2016-09-06T03:45:34.639Z,24.34
2016-09-06T03:46:35.007Z,24.4
2016-09-06T03:47:34.648Z,24.35
2016-09-06T03:48:34.652Z,24.47
2016-09-06T03:49:34.660Z,24.42
2016-09-06T03:50:34.351Z,24.42
2016-09-06T03:51:34.675Z,24.39
2016-09-06T03:52:34.370Z,24.42
2016-09-06T03:53:35.666Z,24.45
2016-09-06T03:54:34.745Z,24.35
2016-09-06T03:55:35.558Z,24.4
2016-09-06T03:56:35.022Z,24.34
2016-09-06T03:57:34.713Z,24.34
2016-09-06T03:58:34.420Z,24.37
2016-09-06T03:59:34.415Z,24.37
2016-09-06T04:00:34.739Z,24.32
2016-09-06T04:01:34.743Z,24.45
2016-09-06T04:02:35.065Z,24.43
2016-09-06T04:03:34.759Z,24.35
2016-09-06T04:04:36.021Z,24.31
2016-09-06T04:05:35.786Z,24.31
2016-09-06T04:06:35.785Z,24.35
2016-09-06T04:07:34.797Z,24.3
2016-09-06T04:08:34.946Z,24.43
2016-09-06T04:09:34.855Z,24.35
2016-09-06T04:10:34.816Z,24.35
2016-09-06T04:11:35.130Z,24.35
2016-09-06T04:12:34.513Z,24.45
2016-09-06T04:13:35.144Z,24.37
2016-09-06T04:14:34.838Z,24.39
2016-09-06T04:15:34.849Z,24.39
2016-09-06T04:16:35.165Z,24.37
2016-09-06T04:17:36.172Z,24.37
2016-09-06T04:18:35.182Z,24.37
2016-09-06T04:19:35.187Z,24.37
2016-09-06T04:20:34.882Z,24.3
2016-09-06T04:21:34.573Z,24.42
2016-09-06T04:22:35.210Z,24.37
2016-09-06T04:23:34.902Z,24.34
2016-09-06T04:24:35.226Z,24.3
2016-09-06T04:25:34.602Z,24.32
2016-09-06T04:26:35.237Z,24.27
2016-09-06T04:27:34.927Z,24.3
2016-09-06T04:28:36.643Z,24.28
2016-09-06T04:29:34.681Z,24.37
2016-09-06T04:30:34.955Z,24.3
2016-09-06T04:31:49.838Z,24.34
2016-09-06T04:32:35.276Z,24.32
2016-09-06T04:33:35.287Z,24.3
2016-09-06T04:34:34.977Z,24.37
2016-09-06T04:35:35.301Z,24.39
2016-09-06T04:36:34.991Z,24.4
2016-09-06T04:37:35.315Z,24.34
2016-09-06T04:38:35.320Z,24.31
2016-09-06T04:39:34.703Z,24.25
2016-09-06T04:40:34.713Z,24.28
2016-09-06T04:41:35.032Z,24.28
2016-09-06T04:42:35.351Z,24.24
2016-09-06T04:43:34.728Z,24.3
2016-09-06T04:44:35.361Z,24.27
2016-09-06T04:45:35.373Z,24.24
2016-09-06T04:46:35.114Z,24.32
2016-09-06T04:47:35.384Z,24.3
2016-09-06T04:48:36.146Z,24.3
2016-09-06T04:49:35.396Z,24.22
2016-09-06T04:50:35.407Z,24.32
2016-09-06T04:51:35.105Z,24.24
2016-09-06T04:52:35.108Z,24.34
2016-09-06T04:53:35.114Z,24.25
2016-09-06T04:54:35.171Z,24.35
2016-09-06T04:55:34.822Z,24.31
2016-09-06T04:56:35.137Z,24.24
2016-09-06T04:57:35.146Z,24.31
2016-09-06T04:58:35.512Z,24.31
2016-09-06T04:59:36.660Z,24.39
2016-09-06T05:00:35.477Z,24.28
2016-09-06T05:01:35.871Z,24.28
2016-09-06T05:02:35.182Z,24.3
2016-09-06T05:03:35.182Z,24.35
2016-09-06T05:04:35.206Z,24.35
2016-09-06T05:05:35.199Z,24.32
2016-09-06T05:06:35.518Z,24.34
2016-09-06T05:07:35.215Z,24.35
2016-09-06T05:08:35.231Z,24.34
2016-09-06T05:09:35.593Z,24.28
2016-09-06T05:10:36.748Z,24.31
2016-09-06T05:11:35.245Z,24.3
2016-09-06T05:12:35.948Z,24.34
2016-09-06T05:13:35.251Z,24.34
2016-09-06T05:14:35.281Z,24.39
2016-09-06T05:15:35.582Z,24.43
2016-09-06T05:16:34.964Z,24.42
2016-09-06T05:17:35.597Z,24.32
2016-09-06T05:18:35.602Z,24.3
2016-09-06T05:19:35.613Z,24.34
2016-09-06T05:20:35.309Z,24.32
2016-09-06T05:21:35.314Z,24.28
2016-09-06T05:22:35.630Z,24.32
2016-09-06T05:23:36.388Z,24.3
2016-09-06T05:24:35.645Z,24.35
2016-09-06T05:25:35.352Z,24.28
2016-09-06T05:26:35.345Z,24.32
2016-09-06T05:27:35.045Z,24.35
2016-09-06T05:28:35.362Z,24.4
2016-09-06T05:29:35.366Z,24.39
2016-09-06T05:30:35.064Z,24.43
2016-09-06T05:31:35.392Z,24.37
2016-09-06T05:32:35.391Z,24.3
2016-09-06T05:33:35.706Z,24.31
2016-09-06T05:34:36.567Z,24.39
2016-09-06T05:35:35.098Z,24.32
2016-09-06T05:36:35.182Z,24.3
2016-09-06T05:37:35.421Z,24.35
2016-09-06T05:38:35.436Z,24.45
2016-09-06T05:39:35.142Z,24.35
2016-09-06T05:40:35.761Z,24.39
2016-09-06T05:41:35.141Z,24.35
2016-09-06T05:42:35.153Z,24.4
2016-09-06T05:43:35.471Z,24.37
2016-09-06T05:44:35.793Z,24.37
2016-09-06T05:45:36.583Z,24.4
2016-09-06T05:46:35.490Z,24.42
2016-09-06T05:47:35.497Z,24.43
2016-09-06T05:48:35.815Z,24.52
2016-09-06T05:49:35.826Z,24.49
2016-09-06T05:50:35.830Z,24.39
2016-09-06T05:51:35.578Z,24.45
2016-09-06T05:52:35.530Z,24.5
2016-09-06T05:53:35.540Z,24.46
2016-09-06T05:54:35.546Z,24.47
2016-09-06T05:55:35.555Z,24.52
2016-09-06T05:56:35.562Z,24.5
2016-09-06T05:57:35.880Z,24.53
2016-09-06T05:58:35.578Z,24.5
2016-09-06T05:59:35.898Z,24.61
2016-09-06T06:00:35.903Z,24.57
2016-09-06T06:01:35.600Z,24.53
2016-09-06T06:02:35.345Z,24.53
2016-09-06T06:03:35.627Z,24.57
2016-09-06T06:04:35.936Z,24.58
2016-09-06T06:05:35.933Z,24.55
2016-09-06T06:06:35.640Z,24.61
2016-09-06T06:07:35.956Z,24.58
2016-09-06T06:08:35.652Z,24.55
2016-09-06T06:09:35.978Z,24.6
2016-09-06T06:10:35.665Z,24.58
2016-09-06T06:11:35.677Z,24.61
2016-09-06T06:12:35.993Z,24.62
2016-09-06T06:13:35.688Z,24.61
2016-09-06T06:14:35.693Z,24.76
2016-09-06T06:15:35.704Z,24.71
2016-09-06T06:16:35.962Z,24.65
2016-09-06T06:17:36.037Z,24.68
2016-09-06T06:18:35.727Z,24.68
2016-09-06T06:19:35.730Z,24.76
2016-09-06T06:20:35.738Z,24.73
2016-09-06T06:21:36.060Z,24.73
2016-09-06T06:22:35.438Z,24.77
2016-09-06T06:23:36.075Z,24.83
2016-09-06T06:24:35.470Z,24.84
2016-09-06T06:25:36.095Z,24.85
2016-09-06T06:26:35.793Z,24.91
2016-09-06T06:27:36.646Z,24.83
2016-09-06T06:28:36.117Z,24.84
2016-09-06T06:29:36.015Z,24.95
2016-09-06T06:30:35.820Z,24.85
2016-09-06T06:31:35.834Z,24.96
2016-09-06T06:32:36.144Z,24.91
2016-09-06T06:33:35.523Z,25.03
2016-09-06T06:34:36.156Z,24.91
2016-09-06T06:35:35.850Z,24.99
2016-09-06T06:36:36.175Z,25.05
2016-09-06T06:37:35.863Z,25.08
2016-09-06T06:38:37.054Z,25.17
2016-09-06T06:39:36.192Z,25.15
2016-09-06T06:40:36.491Z,25.17
2016-09-06T06:41:35.634Z,25.25
2016-09-06T06:42:36.219Z,25.32
2016-09-06T06:43:36.229Z,25.42
2016-09-06T06:44:35.609Z,25.43
2016-09-06T06:45:36.245Z,25.45
2016-09-06T06:46:35.943Z,25.54
2016-09-06T06:47:35.947Z,25.46
2016-09-06T06:48:35.953Z,25.47
2016-09-06T06:49:37.086Z,25.45
2016-09-06T06:50:35.658Z,25.36
2016-09-06T06:51:36.946Z,25.33
2016-09-06T06:52:35.726Z,25.23
2016-09-06T06:53:36.003Z,25.18
2016-09-06T06:54:36.002Z,25.15
2016-09-06T06:55:36.330Z,25.18
2016-09-06T06:56:36.338Z,25.2
2016-09-06T06:57:36.027Z,25.17
2016-09-06T06:58:36.046Z,25.2
2016-09-06T06:59:36.047Z,25.13
2016-09-06T07:00:36.055Z,25.18
2016-09-06T07:01:36.064Z,25.15
2016-09-06T07:02:37.223Z,25.06
2016-09-06T07:03:36.445Z,25.06
2016-09-06T07:04:36.460Z,25.15
2016-09-06T07:05:36.100Z,25.1
2016-09-06T07:06:36.110Z,25.08
2016-09-06T07:07:36.118Z,25.08
2016-09-06T07:08:36.118Z,25.05
2016-09-06T07:09:36.132Z,25.05
2016-09-06T07:10:36.450Z,25.1
2016-09-06T07:11:37.430Z,25.08
2016-09-06T07:12:36.201Z,25.06
2016-09-06T07:13:37.357Z,25.06
2016-09-06T07:14:36.166Z,25.09
2016-09-06T07:15:36.175Z,25.06
2016-09-06T07:16:36.493Z,25.05
2016-09-06T07:17:36.188Z,25.13
2016-09-06T07:18:36.197Z,25.09
2016-09-06T07:19:36.204Z,25.06
2016-09-06T07:20:36.210Z,25.03
2016-09-06T07:21:36.229Z,25.03
2016-09-06T07:22:36.544Z,25.05
2016-09-06T07:23:35.924Z,25.05
2016-09-06T07:24:37.709Z,25.02
2016-09-06T07:25:36.303Z,25
2016-09-06T07:26:36.574Z,24.99
2016-09-06T07:27:36.632Z,25
2016-09-06T07:28:36.590Z,25
2016-09-06T07:29:36.294Z,25.03
2016-09-06T07:30:35.984Z,24.98
2016-09-06T07:31:36.613Z,25
2016-09-06T07:32:36.308Z,25.05
2016-09-06T07:33:36.625Z,25.05
2016-09-06T07:34:36.058Z,24.96
2016-09-06T07:35:38.301Z,24.96
2016-09-06T07:36:36.339Z,25
2016-09-06T07:37:36.657Z,25
2016-09-06T07:38:36.664Z,25
2016-09-06T07:39:36.673Z,24.96
2016-09-06T07:40:36.365Z,24.93
2016-09-06T07:41:36.375Z,24.98
2016-09-06T07:42:36.741Z,24.96
2016-09-06T07:43:36.393Z,25.02
2016-09-06T07:44:36.742Z,24.98
2016-09-06T07:45:36.408Z,24.98
2016-09-06T07:46:36.154Z,24.96
2016-09-06T07:47:36.119Z,25.03
2016-09-06T07:48:36.742Z,25.05
2016-09-06T07:49:36.809Z,24.99
2016-09-06T07:50:36.446Z,25.05
2016-09-06T07:51:36.450Z,25.05
2016-09-06T07:52:36.772Z,25.02
2016-09-06T07:53:36.466Z,25.02
2016-09-06T07:54:36.789Z,24.91
2016-09-06T07:55:37.582Z,24.99
2016-09-06T07:56:36.488Z,24.93
2016-09-06T07:57:36.699Z,24.99
2016-09-06T07:58:36.502Z,25.02
2016-09-06T07:59:36.514Z,25.02
2016-09-06T08:00:36.932Z,25
2016-09-06T08:01:36.839Z,25.03
2016-09-06T08:02:36.849Z,25
2016-09-06T08:03:36.864Z,25.02
2016-09-06T08:04:36.866Z,24.99
2016-09-06T08:05:36.560Z,25
2016-09-06T08:06:38.028Z,25
2016-09-06T08:07:36.258Z,25.05
2016-09-06T08:08:37.180Z,24.99
2016-09-06T08:09:36.897Z,25.05
2016-09-06T08:10:36.911Z,25
2016-09-06T08:11:36.294Z,25
2016-09-06T08:12:36.399Z,25.02
2016-09-06T08:13:36.673Z,24.99
2016-09-06T08:14:36.625Z,24.99
2016-09-06T08:15:36.633Z,24.96
2016-09-06T08:16:36.638Z,25.03
2016-09-06T08:17:38.587Z,24.93
2016-09-06T08:18:36.705Z,24.98
2016-09-06T08:19:37.515Z,24.91
2016-09-06T08:20:36.367Z,24.91
2016-09-06T08:21:36.677Z,24.99
2016-09-06T08:22:36.683Z,24.99
2016-09-06T08:23:37.005Z,24.93
2016-09-06T08:24:37.014Z,25.06
2016-09-06T08:25:36.710Z,25.02
2016-09-06T08:26:37.430Z,24.99
2016-09-06T08:27:37.034Z,25.14
2016-09-06T08:28:37.043Z,25.38
2016-09-06T08:29:37.051Z,25.58
2016-09-06T08:30:36.749Z,25.72
2016-09-06T08:31:36.754Z,25.82
2016-09-06T08:32:36.766Z,25.9
2016-09-06T08:33:36.772Z,25.91
2016-09-06T08:34:36.781Z,26.02
2016-09-06T08:35:36.841Z,25.95
2016-09-06T08:36:37.112Z,25.98
2016-09-06T08:37:37.619Z,26.09
2016-09-06T08:38:36.816Z,26.07
2016-09-06T08:39:37.024Z,26.1
2016-09-06T08:40:37.154Z,26.17
2016-09-06T08:41:37.209Z,26.18
2016-09-06T08:42:36.847Z,26.12
2016-09-06T08:43:36.912Z,26.18
2016-09-06T08:44:36.867Z,26.12
2016-09-06T08:45:36.876Z,26.21
2016-09-06T08:46:36.884Z,26.2
2016-09-06T08:47:36.901Z,26.17
2016-09-06T08:48:38.214Z,26.13
2016-09-06T08:49:36.960Z,26.18
2016-09-06T08:50:37.412Z,26.25
2016-09-06T08:51:37.287Z,26.13
2016-09-06T08:52:37.183Z,26.12
2016-09-06T08:53:37.354Z,26.12
2016-09-06T08:54:37.265Z,26.09
2016-09-06T08:55:36.960Z,26.02
2016-09-06T08:56:37.015Z,26.05
2016-09-06T08:57:36.663Z,25.94
2016-09-06T08:58:36.980Z,25.94
2016-09-06T08:59:38.274Z,25.73
2016-09-06T09:00:37.312Z,25.76
2016-09-06T09:01:37.811Z,25.75
2016-09-06T09:02:37.016Z,25.69
2016-09-06T09:03:37.590Z,25.7
2016-09-06T09:04:37.084Z,25.65
2016-09-06T09:05:37.359Z,25.69
2016-09-06T09:06:37.374Z,25.72
2016-09-06T09:07:37.084Z,25.75
2016-09-06T09:08:37.116Z,25.7
2016-09-06T09:09:37.073Z,25.57
2016-09-06T09:10:37.401Z,25.6
2016-09-06T09:11:37.275Z,25.67
2016-09-06T09:12:37.904Z,25.58
2016-09-06T09:13:37.424Z,25.65
2016-09-06T09:14:37.852Z,25.7
2016-09-06T09:15:37.484Z,25.72
2016-09-06T09:16:36.817Z,25.75
2016-09-06T09:17:37.186Z,25.7
2016-09-06T09:18:37.458Z,25.7
2016-09-06T09:19:37.156Z,25.7
2016-09-06T09:20:36.848Z,25.69
2016-09-06T09:21:37.486Z,25.64
2016-09-06T09:22:37.495Z,25.67
2016-09-06T09:23:37.187Z,25.58
2016-09-06T09:24:37.509Z,25.6
2016-09-06T09:25:36.895Z,25.58
2016-09-06T09:26:37.210Z,25.7
2016-09-06T09:27:36.905Z,25.64
2016-09-06T09:28:37.331Z,25.72
2016-09-06T09:29:37.248Z,25.69
2016-09-06T09:30:37.554Z,25.72
2016-09-06T09:31:37.564Z,25.69
2016-09-06T09:32:37.573Z,25.69
2016-09-06T09:33:37.577Z,25.73
2016-09-06T09:34:37.590Z,25.7
2016-09-06T09:35:37.594Z,25.73
2016-09-06T09:36:37.291Z,25.7
2016-09-06T09:37:37.353Z,25.75
2016-09-06T09:38:37.626Z,25.67
2016-09-06T09:39:37.630Z,25.69
2016-09-06T09:40:37.689Z,25.73
2016-09-06T09:41:37.332Z,25.65
2016-09-06T09:42:37.703Z,25.73
2016-09-06T09:43:38.299Z,25.61
2016-09-06T09:44:37.665Z,25.6
2016-09-06T09:45:37.659Z,25.58
2016-09-06T09:46:37.684Z,25.61
2016-09-06T09:47:37.379Z,25.58
2016-09-06T09:48:37.387Z,25.64
2016-09-06T09:49:37.707Z,25.58
2016-09-06T09:50:37.769Z,25.58
2016-09-06T09:51:37.102Z,25.61
2016-09-06T09:52:37.418Z,25.58
2016-09-06T09:53:37.425Z,25.6
2016-09-06T09:54:38.608Z,25.62
2016-09-06T09:55:37.131Z,25.62
2016-09-06T09:56:37.953Z,25.58
2016-09-06T09:57:37.462Z,25.67
2016-09-06T09:58:37.465Z,25.67
2016-09-06T09:59:37.790Z,25.67
2016-09-06T10:00:37.489Z,25.69
2016-09-06T10:01:37.489Z,25.7
2016-09-06T10:02:37.814Z,25.61
2016-09-06T10:03:37.823Z,25.6
2016-09-06T10:04:37.514Z,25.61
2016-09-06T10:05:38.952Z,25.58
2016-09-06T10:06:37.531Z,25.57
2016-09-06T10:07:38.390Z,25.6
2016-09-06T10:08:37.545Z,25.67
2016-09-06T10:09:37.240Z,25.58
2016-09-06T10:10:37.561Z,25.62
2016-09-06T10:11:37.256Z,25.73
2016-09-06T10:12:37.889Z,25.61
2016-09-06T10:13:37.271Z,25.61
2016-09-06T10:14:37.906Z,25.6
2016-09-06T10:15:37.913Z,25.57
2016-09-06T10:16:37.923Z,25.69
2016-09-06T10:17:37.616Z,25.67
2016-09-06T10:18:39.166Z,25.58
2016-09-06T10:19:37.638Z,25.6
2016-09-06T10:20:37.328Z,25.67
2016-09-06T10:21:37.964Z,25.57
2016-09-06T10:22:37.347Z,25.62
2016-09-06T10:23:37.668Z,25.72
2016-09-06T10:24:37.355Z,25.65
2016-09-06T10:25:37.368Z,25.7
2016-09-06T10:26:37.785Z,25.65
2016-09-06T10:27:38.008Z,25.69
2016-09-06T10:28:37.389Z,25.67
2016-09-06T10:29:38.039Z,25.58
2016-09-06T10:30:38.044Z,25.58
2016-09-06T10:31:37.828Z,25.65
2016-09-06T10:32:37.429Z,25.57
2016-09-06T10:33:38.061Z,25.5
2016-09-06T10:34:37.749Z,25.52
2016-09-06T10:35:38.071Z,25.61
2016-09-06T10:36:38.076Z,25.64
2016-09-06T10:38:38.743Z,25.6
2016-09-06T10:39:37.527Z,25.65
2016-09-06T10:40:38.111Z,25.6
2016-09-06T10:41:37.504Z,25.58
2016-09-06T10:42:37.861Z,25.6
2016-09-06T10:43:37.870Z,25.58
2016-09-06T10:44:37.516Z,25.54
2016-09-06T10:45:38.152Z,25.54
2016-09-06T10:46:38.156Z,25.58
2016-09-06T10:47:37.853Z,25.5
2016-09-06T10:48:37.561Z,25.52
2016-09-06T10:49:39.184Z,25.5
2016-09-06T10:50:37.564Z,25.51
2016-09-06T10:51:38.136Z,25.6
2016-09-06T10:52:38.213Z,25.62
2016-09-06T10:53:37.901Z,25.65
2016-09-06T10:54:38.218Z,25.65
2016-09-06T10:55:37.965Z,25.61
2016-09-06T10:56:37.931Z,25.6
2016-09-06T10:57:37.932Z,25.69
2016-09-06T10:58:37.946Z,25.65
2016-09-06T10:59:37.943Z,25.7
2016-09-06T11:00:39.562Z,25.7
2016-09-06T11:01:38.335Z,25.69
2016-09-06T11:02:38.783Z,25.69
2016-09-06T11:03:37.715Z,25.7
2016-09-06T11:04:37.676Z,25.73
2016-09-06T11:05:38.314Z,25.67
2016-09-06T11:06:38.009Z,25.72
2016-09-06T11:07:38.327Z,25.69
2016-09-06T11:08:38.067Z,25.67
2016-09-06T11:09:38.032Z,25.69
2016-09-06T11:10:38.348Z,25.6
2016-09-06T11:11:39.818Z,25.69
2016-09-06T11:12:38.050Z,25.65
2016-09-06T11:13:39.025Z,25.69
2016-09-06T11:14:38.070Z,25.7
2016-09-06T11:15:37.814Z,25.58
2016-09-06T11:16:38.400Z,25.69
2016-09-06T11:17:37.780Z,25.67
2016-09-06T11:18:38.409Z,25.67
2016-09-06T11:19:37.799Z,25.58
2016-09-06T11:20:38.422Z,25.69
2016-09-06T11:21:37.861Z,25.7
2016-09-06T11:22:38.442Z,25.69
2016-09-06T11:23:38.140Z,25.7
2016-09-06T11:24:39.556Z,25.69
2016-09-06T11:25:37.846Z,25.64
2016-09-06T11:26:38.165Z,25.7
2016-09-06T11:27:37.860Z,25.7
2016-09-06T11:28:38.179Z,25.69
2016-09-06T11:29:38.237Z,25.72
2016-09-06T11:30:38.191Z,25.72
2016-09-06T11:31:38.515Z,25.7
2016-09-06T11:32:38.003Z,25.77
2016-09-06T11:33:38.530Z,25.73
2016-09-06T11:34:38.328Z,25.73
2016-09-06T11:35:37.922Z,25.69
2016-09-06T11:36:38.559Z,25.69
2016-09-06T11:37:38.564Z,25.75
2016-09-06T11:38:38.623Z,25.73
2016-09-06T11:39:38.575Z,25.72
2016-09-06T11:40:38.278Z,25.75
2016-09-06T11:41:38.279Z,25.75
2016-09-06T11:42:38.028Z,25.65
2016-09-06T11:43:38.347Z,25.77
2016-09-06T11:44:38.358Z,25.69
2016-09-06T11:45:38.314Z,25.73
2016-09-06T11:46:38.059Z,25.67
2016-09-06T11:47:38.381Z,25.67
2016-09-06T11:48:38.028Z,25.7
2016-09-06T11:49:38.710Z,25.73
2016-09-06T11:50:38.667Z,25.67
2016-09-06T11:51:38.051Z,25.67
2016-09-06T11:52:38.739Z,25.73
2016-09-06T11:53:38.379Z,25.76
2016-09-06T11:54:38.073Z,25.72
2016-09-06T11:55:39.148Z,25.73
2016-09-06T11:56:38.404Z,25.77
2016-09-06T11:57:38.464Z,25.69
2016-09-06T11:58:38.738Z,25.73
2016-09-06T11:59:40.480Z,25.75
2016-09-06T12:00:38.435Z,25.73
2016-09-06T12:01:38.449Z,25.77
2016-09-06T12:02:38.140Z,25.73
2016-09-06T12:03:38.508Z,25.75
2016-09-06T12:04:38.778Z,25.7
2016-09-06T12:05:38.837Z,25.75
2016-09-06T12:06:38.221Z,25.75
2016-09-06T12:07:38.858Z,25.7
2016-09-06T12:08:39.162Z,25.82
2016-09-06T12:09:38.504Z,25.79
2016-09-06T12:10:38.310Z,25.72
2016-09-06T12:11:38.837Z,25.77
2016-09-06T12:12:38.214Z,25.79
2016-09-06T12:13:38.551Z,25.72
2016-09-06T12:14:38.860Z,25.76
2016-09-06T12:15:38.861Z,25.7
2016-09-06T12:16:38.249Z,25.73
2016-09-06T12:17:38.255Z,25.72
2016-09-06T12:18:38.629Z,25.82
2016-09-06T12:19:39.542Z,25.76
2016-09-06T12:20:38.331Z,25.73
2016-09-06T12:21:38.602Z,25.82
2016-09-06T12:22:38.710Z,25.73
2016-09-06T12:23:38.930Z,25.67
2016-09-06T12:24:38.626Z,25.64
2016-09-06T12:25:38.636Z,25.7
2016-09-06T12:26:38.640Z,25.7
2016-09-06T12:27:39.011Z,25.75
2016-09-06T12:28:40.722Z,25.72
2016-09-06T12:29:38.974Z,25.72
2016-09-06T12:30:40.036Z,25.79
2016-09-06T12:31:38.368Z,25.73
2016-09-06T12:32:38.686Z,25.76
2016-09-06T12:33:38.695Z,25.67
2016-09-06T12:34:38.387Z,25.76
2016-09-06T12:35:38.400Z,25.7
2016-09-06T12:36:38.454Z,25.76
2016-09-06T12:37:38.726Z,25.79
2016-09-06T12:38:38.742Z,25.76
2016-09-06T12:39:38.744Z,25.75
2016-09-06T12:40:38.751Z,25.76
2016-09-06T12:41:40.361Z,25.82
2016-09-06T12:42:38.449Z,25.7
2016-09-06T12:43:38.464Z,25.7
2016-09-06T12:44:38.782Z,25.67
2016-09-06T12:45:38.795Z,25.69
2016-09-06T12:46:38.486Z,25.75
2016-09-06T12:47:39.121Z,25.7
2016-09-06T12:48:38.824Z,25.75
2016-09-06T12:49:39.181Z,25.75
2016-09-06T12:50:39.143Z,25.69
2016-09-06T12:51:38.836Z,25.72
2016-09-06T12:52:38.846Z,25.65
2016-09-06T12:53:40.723Z,25.67
2016-09-06T12:54:38.864Z,25.6
2016-09-06T12:55:39.182Z,25.57
2016-09-06T12:56:38.615Z,25.67
2016-09-06T12:57:38.579Z,25.61
2016-09-06T12:58:39.006Z,25.58